createdAt,value
2022-10-23T00:01:18.415Z,97241.38
2022-10-23T00:03:45.627Z,97233.41
2022-10-23T00:06:13.279Z,97233.72
2022-10-23T00:08:40.354Z,97248.13
2022-10-23T00:11:16.069Z,97239.88
2022-10-23T00:13:42.696Z,97240.56
2022-10-23T00:16:09.727Z,97233.22
2022-10-23T00:18:36.894Z,97240.28
2022-10-23T00:21:04.249Z,97241.47
2022-10-23T00:23:30.679Z,97232.69
2022-10-23T00:25:57.043Z,97221.38
2022-10-23T00:28:23.496Z,97217.25
2022-10-23T00:30:49.822Z,97225.34
2022-10-23T00:33:16.231Z,97227.25
2022-10-23T00:35:43.581Z,97221.44
2022-10-23T00:38:10.724Z,97224.44
2022-10-23T00:40:38.620Z,97221.84
2022-10-23T00:43:05.195Z,97206.97
2022-10-23T00:45:33.469Z,97197.03
2022-10-23T00:48:03.754Z,97200.81
2022-10-23T00:50:32.860Z,97202.50
2022-10-23T00:53:02.184Z,97189.09
2022-10-23T00:55:30.263Z,97192.34
2022-10-23T00:57:56.820Z,97190.50
2022-10-23T01:00:29.047Z,97196.91
2022-10-23T01:02:57.268Z,97182.22
2022-10-23T01:05:32.063Z,97171.91
2022-10-23T01:08:36.659Z,97173.78
2022-10-23T01:11:19.826Z,97182.66
2022-10-23T01:14:06.621Z,97187.28
2022-10-23T01:16:44.564Z,97183.31
2022-10-23T01:19:47.818Z,97180.72
2022-10-23T01:22:45.285Z,97188.72
2022-10-23T01:25:26.375Z,97183.06
2022-10-23T01:27:57.365Z,97179.69
2022-10-23T01:30:23.772Z,97169.28
2022-10-23T01:32:52.965Z,97184.59
2022-10-23T01:35:27.444Z,97183.56
2022-10-23T01:38:01.032Z,97177.72
2022-10-23T01:40:48.948Z,97179.69
2022-10-23T01:43:20.964Z,97174.22
2022-10-23T01:45:55.016Z,97183.06
2022-10-23T01:48:31.932Z,97182.00
2022-10-23T01:51:01.671Z,97173.22
2022-10-23T01:53:31.659Z,97160.38
2022-10-23T01:56:01.511Z,97168.09
2022-10-23T01:58:30.064Z,97151.72
2022-10-23T02:01:01.453Z,97142.03
2022-10-23T02:03:31.377Z,97142.03
2022-10-23T02:05:58.056Z,97152.13
2022-10-23T02:08:25.631Z,97144.31
2022-10-23T02:11:04.582Z,97144.06
2022-10-23T02:13:45.261Z,97143.94
2022-10-23T02:16:26.768Z,97150.63
2022-10-23T02:19:30.854Z,97141.59
2022-10-23T02:22:00.236Z,97142.47
2022-10-23T02:24:35.063Z,97129.47
2022-10-23T02:27:05.236Z,97118.00
2022-10-23T02:29:38.898Z,97117.41
2022-10-23T02:32:08.743Z,97112.06
2022-10-23T02:34:36.058Z,97102.16
2022-10-23T02:37:02.833Z,97114.06
2022-10-23T02:39:29.522Z,97107.63
2022-10-23T02:42:22.181Z,97113.59
2022-10-23T02:45:31.625Z,97117.25
2022-10-23T02:48:01.776Z,97114.66
2022-10-23T02:50:38.281Z,97104.75
2022-10-23T02:53:20.947Z,97110.09
2022-10-23T02:56:08.589Z,97117.13
2022-10-23T02:59:10.201Z,97115.16
2022-10-23T03:01:46.823Z,97108.41
2022-10-23T03:04:15.682Z,97110.28
2022-10-23T03:06:42.783Z,97105.72
2022-10-23T03:09:10.037Z,97128.38
2022-10-23T03:11:36.579Z,97118.59
2022-10-23T03:14:03.039Z,97104.81
2022-10-23T03:16:29.473Z,97096.09
2022-10-23T03:18:55.888Z,97091.84
2022-10-23T03:21:22.272Z,97096.56
2022-10-23T03:23:48.720Z,97089.09
2022-10-23T03:26:15.407Z,97068.28
2022-10-23T03:28:41.766Z,97078.22
2022-10-23T03:31:08.151Z,97080.66
2022-10-23T03:33:34.565Z,97078.22
2022-10-23T03:36:00.940Z,97079.16
2022-10-23T03:38:27.302Z,97074.84
2022-10-23T03:40:53.720Z,97075.00
2022-10-23T03:43:20.091Z,97076.38
2022-10-23T03:45:46.462Z,97076.53
2022-10-23T03:48:12.842Z,97074.53
2022-10-23T03:50:39.194Z,97069.81
2022-10-23T03:53:05.660Z,97072.25
2022-10-23T03:55:32.040Z,97082.94
2022-10-23T03:57:58.395Z,97080.50
2022-10-23T04:00:24.771Z,97086.63
2022-10-23T04:02:51.157Z,97093.53
2022-10-23T04:05:17.717Z,97095.81
2022-10-23T04:07:44.136Z,97088.31
2022-10-23T04:10:10.577Z,97090.16
2022-10-23T04:12:36.956Z,97086.50
2022-10-23T04:15:03.852Z,97089.09
2022-10-23T04:17:30.208Z,97090.75
2022-10-23T04:19:56.580Z,97085.25
2022-10-23T04:22:25.946Z,97081.72
2022-10-23T04:24:53.977Z,97064.91
2022-10-23T04:27:20.409Z,97060.47
2022-10-23T04:29:46.803Z,97062.16
2022-10-23T04:32:13.156Z,97056.97
2022-10-23T04:34:39.496Z,97058.31
2022-10-23T04:37:05.842Z,97062.75
2022-10-23T04:39:32.191Z,97072.09
2022-10-23T04:41:58.529Z,97073.94
2022-10-23T04:44:24.891Z,97072.56
2022-10-23T04:46:51.248Z,97065.63
2022-10-23T04:49:17.654Z,97064.25
2022-10-23T04:51:44.006Z,97049.16
2022-10-23T04:54:10.384Z,97069.19
2022-10-23T04:56:36.788Z,97056.94
2022-10-23T05:01:35.446Z,97058.16
2022-10-23T05:04:01.930Z,97049.91
2022-10-23T05:06:28.342Z,97045.63
2022-10-23T05:08:54.860Z,97048.38
2022-10-23T05:11:21.221Z,97042.56
2022-10-23T05:13:47.737Z,97051.75
2022-10-23T05:16:32.963Z,97042.13
2022-10-23T05:19:00.171Z,97048.06
2022-10-23T05:21:29.700Z,97030.47
2022-10-23T05:23:56.147Z,97034.63
2022-10-23T05:26:22.721Z,97031.44
2022-10-23T05:28:49.270Z,97022.25
2022-10-23T05:31:16.101Z,97024.22
2022-10-23T05:33:42.498Z,97010.44
2022-10-23T05:36:09.534Z,97017.31
2022-10-23T05:38:36.200Z,97008.16
2022-10-23T05:41:03.106Z,97008.28
2022-10-23T05:43:31.153Z,97016.22
2022-10-23T05:45:58.192Z,97016.84
2022-10-23T05:48:34.413Z,97011.94
2022-10-23T05:51:09.127Z,97012.09
2022-10-23T05:53:38.697Z,96995.25
2022-10-23T05:56:08.852Z,97005.19
2022-10-23T05:58:35.368Z,97008.25
2022-10-23T06:01:09.769Z,97004.72
2022-10-23T06:03:37.201Z,97007.16
2022-10-23T06:06:04.008Z,97002.72
2022-10-23T06:08:31.483Z,97010.25
2022-10-23T06:10:57.864Z,97012.50
2022-10-23T06:13:24.401Z,97010.25
2022-10-23T06:15:50.776Z,97004.56
2022-10-23T06:18:17.136Z,97003.75
2022-10-23T06:20:44.227Z,97000.56
2022-10-23T06:23:10.597Z,96997.06
2022-10-23T06:25:37.069Z,97004.97
2022-10-23T06:28:03.468Z,96997.19
2022-10-23T06:30:29.927Z,96995.97
2022-10-23T06:32:56.356Z,96988.03
2022-10-23T06:35:22.811Z,96987.69
2022-10-23T06:37:49.196Z,96990.28
2022-10-23T06:40:15.555Z,96989.25
2022-10-23T06:42:42.236Z,96998.09
2022-10-23T06:45:08.834Z,96996.44
2022-10-23T06:47:35.190Z,97005.28
2022-10-23T06:50:01.562Z,96996.38
2022-10-23T06:52:47.790Z,97002.97
2022-10-23T06:55:14.648Z,97003.22
2022-10-23T06:57:41.375Z,96997.56
2022-10-23T07:00:08.573Z,97007.81
2022-10-23T07:02:35.009Z,97008.41
2022-10-23T07:05:01.486Z,97006.56
2022-10-23T07:07:29.932Z,96991.38
2022-10-23T07:09:56.572Z,96999.03
2022-10-23T07:12:22.924Z,97004.06
2022-10-23T07:14:49.318Z,97005.75
2022-10-23T07:17:15.918Z,96986.59
2022-10-23T07:19:42.254Z,97000.59
2022-10-23T07:22:10.752Z,97005.53
2022-10-23T07:24:40.198Z,97001.81
2022-10-23T07:27:06.915Z,96988.78
2022-10-23T07:29:33.425Z,96995.06
2022-10-23T07:32:02.865Z,96985.88
2022-10-23T07:34:29.288Z,96989.50
2022-10-23T07:36:56.919Z,96997.91
2022-10-23T07:39:23.624Z,96993.13
2022-10-23T07:41:50.381Z,96986.94
2022-10-23T07:44:16.707Z,96993.81
2022-10-23T07:46:43.151Z,96986.75
2022-10-23T07:49:10.910Z,96988.53
2022-10-23T07:51:37.272Z,97006.75
2022-10-23T07:54:03.723Z,96994.56
2022-10-23T07:56:30.229Z,96993.13
2022-10-23T07:58:56.614Z,96980.53
2022-10-23T08:01:29.975Z,96994.38
2022-10-23T08:03:56.432Z,96973.81
2022-10-23T08:06:22.936Z,96981.91
2022-10-23T08:08:49.283Z,96982.13
2022-10-23T08:11:19.250Z,96992.06
2022-10-23T08:13:45.712Z,97003.50
2022-10-23T08:16:12.133Z,97003.97
2022-10-23T08:18:39.899Z,97000.41
2022-10-23T08:21:06.235Z,96999.09
2022-10-23T08:23:32.613Z,96989.66
2022-10-23T08:26:06.425Z,96976.50
2022-10-23T08:28:33.422Z,96978.81
2022-10-23T08:31:09.964Z,96963.59
2022-10-23T08:33:36.750Z,96966.72
2022-10-23T08:36:03.839Z,96972.19
2022-10-23T08:38:30.308Z,96982.06
2022-10-23T08:40:56.789Z,96983.84
2022-10-23T08:43:36.106Z,96989.50
2022-10-23T08:46:09.522Z,96993.72
2022-10-23T08:48:45.669Z,96988.06
2022-10-23T08:51:25.366Z,96983.19
2022-10-23T08:54:08.127Z,96985.56
2022-10-23T08:56:37.884Z,96966.41
2022-10-23T08:59:20.255Z,96960.75
2022-10-23T09:01:52.238Z,96966.94
2022-10-23T09:04:18.729Z,96978.50
2022-10-23T09:07:00.263Z,96956.28
2022-10-23T09:09:53.973Z,96963.25
2022-10-23T09:12:29.004Z,96954.44
2022-10-23T09:15:04.071Z,96964.66
2022-10-23T09:17:35.997Z,96965.13
2022-10-23T09:20:10.750Z,96970.22
2022-10-23T09:22:37.212Z,96960.97
2022-10-23T09:25:08.111Z,96971.63
2022-10-23T09:27:34.455Z,96979.91
2022-10-23T09:30:00.824Z,96980.78
2022-10-23T09:32:37.742Z,96980.44
2022-10-23T09:35:05.095Z,96965.63
2022-10-23T09:37:34.266Z,96967.59
2022-10-23T09:40:16.509Z,96978.78
2022-10-23T09:43:04.146Z,96981.94
2022-10-23T09:45:35.158Z,96963.53
2022-10-23T09:48:12.760Z,96959.72
2022-10-23T09:51:03.040Z,96959.72
2022-10-23T09:53:38.972Z,96947.31
2022-10-23T09:56:24.777Z,96938.38
2022-10-23T09:58:58.711Z,96948.06
2022-10-23T10:01:27.555Z,96952.06
2022-10-23T10:03:54.219Z,96935.19
2022-10-23T10:06:30.380Z,96934.94
2022-10-23T10:08:59.287Z,96929.06
2022-10-23T10:11:42.787Z,96936.38
2022-10-23T10:14:40.372Z,96947.06
2022-10-23T10:17:28.457Z,96942.94
2022-10-23T10:20:03.906Z,96944.00
2022-10-23T10:22:51.466Z,96941.94
2022-10-23T10:25:33.929Z,96943.69
2022-10-23T10:28:21.941Z,96942.91
2022-10-23T10:30:57.355Z,96934.28
2022-10-23T10:34:00.704Z,96930.31
2022-10-23T10:36:39.451Z,96936.19
2022-10-23T10:39:18.405Z,96928.00
2022-10-23T10:42:18.958Z,96911.13
2022-10-23T10:45:06.741Z,96900.25
2022-10-23T10:47:45.543Z,96891.31
2022-10-23T10:50:19.759Z,96886.66
2022-10-23T10:53:04.614Z,96888.84
2022-10-23T10:55:35.719Z,96887.94
2022-10-23T10:58:21.276Z,96894.00
2022-10-23T11:00:54.791Z,96878.91
2022-10-23T11:03:43.239Z,96865.63
2022-10-23T11:06:16.640Z,96862.69
2022-10-23T11:08:57.207Z,96870.84
2022-10-23T11:11:31.868Z,96862.34
2022-10-23T11:13:58.474Z,96848.28
2022-10-23T11:16:29.764Z,96867.25
2022-10-23T11:19:21.227Z,96878.09
2022-10-23T11:22:32.313Z,96886.38
2022-10-23T11:25:26.751Z,96879.19
2022-10-23T11:28:04.481Z,96874.69
2022-10-23T11:31:12.140Z,96866.44
2022-10-23T11:34:11.368Z,96869.41
2022-10-23T11:36:54.328Z,96862.22
2022-10-23T11:39:27.247Z,96851.22
2022-10-23T11:42:00.110Z,96868.88
2022-10-23T11:44:46.759Z,96865.06
2022-10-23T11:47:35.012Z,96852.13
2022-10-23T11:50:16.245Z,96853.41
2022-10-23T11:53:16.661Z,96845.59
2022-10-23T11:55:58.510Z,96838.34
2022-10-23T11:58:40.632Z,96843.38
2022-10-23T12:01:20.011Z,96841.03
2022-10-23T12:03:52.925Z,96828.81
2022-10-23T12:06:29.710Z,96822.56
2022-10-23T12:09:01.222Z,96815.34
2022-10-23T12:11:42.299Z,96815.44
2022-10-23T12:14:46.314Z,96822.94
2022-10-23T12:17:24.746Z,96826.06
2022-10-23T12:20:14.496Z,96803.94
2022-10-23T12:23:07.005Z,96816.44
2022-10-23T12:26:25.998Z,96823.84
2022-10-23T12:29:01.124Z,96804.81
2022-10-23T12:31:33.469Z,96798.28
2022-10-23T12:34:21.470Z,96796.25
2022-10-23T12:37:06.715Z,96784.97
2022-10-23T12:39:40.095Z,96776.25
2022-10-23T12:42:15.381Z,96784.59
2022-10-23T12:44:41.773Z,96768.41
2022-10-23T12:47:18.655Z,96769.56
2022-10-23T12:49:50.080Z,96761.31
2022-10-23T12:52:19.663Z,96766.63
2022-10-23T12:54:46.395Z,96768.72
2022-10-23T12:57:26.948Z,96753.56
2022-10-23T12:59:58.475Z,96752.38
2022-10-23T13:02:27.997Z,96755.06
2022-10-23T13:04:56.886Z,96756.59
2022-10-23T13:07:28.014Z,96752.19
2022-10-23T13:09:55.376Z,96739.78
2022-10-23T13:12:31.088Z,96733.44
2022-10-23T13:15:07.490Z,96729.38
2022-10-23T13:17:43.408Z,96727.25
2022-10-23T13:20:18.701Z,96728.13
2022-10-23T13:22:47.507Z,96709.03
2022-10-23T13:25:26.266Z,96706.06
2022-10-23T13:28:20.776Z,96718.16
2022-10-23T13:31:04.112Z,96699.72
2022-10-23T13:33:44.103Z,96685.56
2022-10-23T13:36:13.335Z,96695.91
2022-10-23T13:38:42.235Z,96679.41
2022-10-23T13:41:15.039Z,96684.34
2022-10-23T13:43:42.547Z,96694.81
2022-10-23T13:46:19.831Z,96683.22
2022-10-23T13:48:46.992Z,96686.03
2022-10-23T13:51:20.482Z,96695.22
2022-10-23T13:53:47.333Z,96688.72
2022-10-23T13:56:14.894Z,96688.91
2022-10-23T13:58:41.934Z,96696.53
2022-10-23T14:01:23.111Z,96701.50
2022-10-23T14:03:50.723Z,96687.41
2022-10-23T14:06:17.507Z,96691.59
2022-10-23T14:08:43.964Z,96687.47
2022-10-23T14:13:47.200Z,96678.53
2022-10-23T14:16:15.040Z,96674.72
2022-10-23T14:18:41.763Z,96678.03
2022-10-23T14:21:10.968Z,96673.97
2022-10-23T14:23:37.302Z,96670.53
2022-10-23T14:26:05.509Z,96673.63
2022-10-23T14:28:32.499Z,96664.72
2022-10-23T14:31:04.973Z,96665.84
2022-10-23T14:33:31.319Z,96676.97
2022-10-23T14:35:57.663Z,96670.97
2022-10-23T14:38:24.378Z,96661.53
2022-10-23T14:40:50.815Z,96652.16
2022-10-23T14:43:17.204Z,96655.53
2022-10-23T14:45:43.545Z,96648.47
2022-10-23T14:48:10.197Z,96637.78
2022-10-23T14:50:42.021Z,96636.47
2022-10-23T14:53:08.410Z,96621.88
2022-10-23T14:55:34.786Z,96625.69
2022-10-23T14:58:01.152Z,96621.56
2022-10-23T15:00:27.701Z,96621.81
2022-10-23T15:02:54.057Z,96613.53
2022-10-23T15:05:20.443Z,96616.50
2022-10-23T15:07:46.966Z,96636.81
2022-10-23T15:10:13.357Z,96622.41
2022-10-23T15:12:39.771Z,96621.31
2022-10-23T15:15:07.613Z,96617.94
2022-10-23T15:17:35.708Z,96615.91
2022-10-23T15:20:02.140Z,96613.97
2022-10-23T15:22:28.549Z,96612.47
2022-10-23T15:24:56.685Z,96614.72
2022-10-23T15:27:23.077Z,96615.41
2022-10-23T15:29:49.430Z,96604.94
2022-10-23T15:32:17.588Z,96613.22
2022-10-23T15:34:43.932Z,96589.88
2022-10-23T15:37:10.987Z,96588.56
2022-10-23T15:39:37.344Z,96590.94
2022-10-23T15:42:05.834Z,96593.81
2022-10-23T15:44:33.641Z,96568.59
2022-10-23T15:47:00.665Z,96576.69
2022-10-23T15:49:31.769Z,96570.44
2022-10-23T15:51:58.430Z,96573.50
2022-10-23T15:54:28.052Z,96557.59
2022-10-23T15:56:57.494Z,96578.75
2022-10-23T15:59:25.111Z,96573.06
2022-10-23T16:01:52.320Z,96561.69
2022-10-23T16:04:19.314Z,96569.63
2022-10-23T16:06:46.117Z,96560.53
2022-10-23T16:09:12.977Z,96563.50
2022-10-23T16:11:42.084Z,96560.53
2022-10-23T16:14:12.503Z,96568.72
2022-10-23T16:16:38.887Z,96563.56
2022-10-23T16:19:05.714Z,96553.44
2022-10-23T16:21:35.975Z,96564.66
2022-10-23T16:24:04.289Z,96569.91
2022-10-23T16:26:31.412Z,96585.16
2022-10-23T16:29:00.384Z,96585.91
2022-10-23T16:31:27.755Z,96584.00
2022-10-23T16:33:54.552Z,96570.84
2022-10-23T16:36:21.289Z,96572.28
2022-10-23T16:38:47.631Z,96566.00
2022-10-23T16:41:14.041Z,96557.25
2022-10-23T16:43:40.429Z,96558.84
2022-10-23T16:46:11.767Z,96552.84
2022-10-23T16:48:39.043Z,96548.47
2022-10-23T16:51:11.868Z,96552.63
2022-10-23T16:53:38.748Z,96560.78
2022-10-23T16:56:07.041Z,96552.19
2022-10-23T16:58:34.202Z,96542.41
2022-10-23T17:01:22.742Z,96546.63
2022-10-23T17:03:51.371Z,96556.41
2022-10-23T17:06:23.754Z,96555.56
2022-10-23T17:08:50.475Z,96567.47
2022-10-23T17:11:20.184Z,96576.78
2022-10-23T17:13:58.668Z,96568.47
2022-10-23T17:16:29.735Z,96576.31
2022-10-23T17:18:56.763Z,96580.09
2022-10-23T17:21:24.025Z,96586.41
2022-10-23T17:23:50.696Z,96584.66
2022-10-23T17:26:19.522Z,96579.47
2022-10-23T17:28:46.540Z,96582.78
2022-10-23T17:31:13.046Z,96607.97
2022-10-23T17:33:39.903Z,96593.97
2022-10-23T17:36:06.403Z,96603.81
2022-10-23T17:38:35.575Z,96617.94
2022-10-23T17:41:01.964Z,96609.00
2022-10-23T17:43:28.374Z,96624.19
2022-10-23T17:45:55.129Z,96631.44
2022-10-23T17:48:21.478Z,96629.41
2022-10-23T17:50:47.825Z,96643.03
2022-10-23T17:53:14.184Z,96615.22
2022-10-23T17:55:41.635Z,96639.25
2022-10-23T17:58:08.477Z,96641.59
2022-10-23T18:00:36.636Z,96653.16
2022-10-23T18:03:03.743Z,96672.94
2022-10-23T18:05:32.875Z,96697.72
2022-10-23T18:07:59.931Z,96717.22
2022-10-23T18:10:27.397Z,96728.13
2022-10-23T18:12:53.749Z,96698.88
2022-10-23T18:15:20.155Z,96722.72
2022-10-23T18:17:46.779Z,96712.00
2022-10-23T18:20:14.711Z,96708.56
2022-10-23T18:22:41.191Z,96693.28
2022-10-23T18:25:08.228Z,96669.91
2022-10-23T18:27:34.769Z,96637.13
2022-10-23T18:30:01.273Z,96613.44
2022-10-23T18:32:28.303Z,96623.22
2022-10-23T18:34:54.714Z,96626.16
2022-10-23T18:37:21.054Z,96597.50
2022-10-23T18:39:47.437Z,96596.88
2022-10-23T18:42:13.843Z,96594.44
2022-10-23T18:44:40.328Z,96604.06
2022-10-23T18:47:06.701Z,96594.88
2022-10-23T18:49:33.135Z,96602.97
2022-10-23T18:51:59.523Z,96597.91
2022-10-23T18:54:26.179Z,96594.38
2022-10-23T18:56:52.518Z,96584.34
2022-10-23T18:59:20.442Z,96604.06
2022-10-23T19:01:47.270Z,96587.22
2022-10-23T19:04:15.763Z,96601.88
2022-10-23T19:06:42.569Z,96608.28
2022-10-23T19:09:10.404Z,96610.22
2022-10-23T19:11:37.569Z,96618.97
2022-10-23T19:14:05.590Z,96625.78
2022-10-23T19:17:01.070Z,96626.47
2022-10-23T19:19:33.257Z,96622.41
2022-10-23T19:22:02.357Z,96621.84
2022-10-23T19:24:36.552Z,96627.38
2022-10-23T19:27:03.288Z,96617.44
2022-10-23T19:29:30.533Z,96622.84
2022-10-23T19:31:56.997Z,96612.38
2022-10-23T19:34:24.994Z,96629.00
2022-10-23T19:36:53.363Z,96626.13
2022-10-23T19:39:19.820Z,96614.00
2022-10-23T19:41:46.271Z,96626.81
2022-10-23T19:44:14.136Z,96636.25
2022-10-23T19:46:40.675Z,96628.22
2022-10-23T19:49:08.725Z,96620.19
2022-10-23T19:51:35.412Z,96631.63
2022-10-23T19:54:01.912Z,96644.19
2022-10-23T19:56:28.323Z,96643.31
2022-10-23T19:58:54.888Z,96637.00
2022-10-23T20:01:24.403Z,96651.16
2022-10-23T20:03:51.117Z,96649.16
2022-10-23T20:06:21.257Z,96644.34
2022-10-23T20:08:48.386Z,96625.47
2022-10-23T20:11:23.824Z,96642.16
2022-10-23T20:13:50.257Z,96643.94
2022-10-23T20:16:21.825Z,96644.19
2022-10-23T20:18:48.302Z,96661.91
2022-10-23T20:21:15.081Z,96654.41
2022-10-23T20:23:41.718Z,96651.53
2022-10-23T20:26:11.109Z,96648.75
2022-10-23T20:28:38.073Z,96642.84
2022-10-23T20:31:09.279Z,96639.47
2022-10-23T20:33:40.087Z,96636.94
2022-10-23T20:36:08.876Z,96652.72
2022-10-23T20:38:36.184Z,96651.88
2022-10-23T20:41:06.935Z,96662.84
2022-10-23T20:43:33.915Z,96674.56
2022-10-23T20:46:07.977Z,96676.34
2022-10-23T20:48:42.932Z,96662.59
2022-10-23T20:51:15.467Z,96663.00
2022-10-23T20:53:43.209Z,96681.47
2022-10-23T20:56:13.052Z,96678.28
2022-10-23T20:58:39.579Z,96676.69
2022-10-23T21:01:17.247Z,96669.00
2022-10-23T21:03:44.595Z,96670.19
2022-10-23T21:06:13.725Z,96678.34
2022-10-23T21:08:41.176Z,96691.66
2022-10-23T21:11:11.170Z,96687.66
2022-10-23T21:13:37.746Z,96682.59
2022-10-23T21:16:24.886Z,96690.16
2022-10-23T21:18:55.404Z,96689.56
2022-10-23T21:21:22.319Z,96687.56
2022-10-23T21:23:51.353Z,96702.81
2022-10-23T21:26:19.491Z,96691.09
2022-10-23T21:28:56.353Z,96710.16
2022-10-23T21:31:34.729Z,96707.91
2022-10-23T21:34:01.262Z,96697.34
2022-10-23T21:36:29.797Z,96693.81
2022-10-23T21:38:58.668Z,96706.78
2022-10-23T21:41:27.445Z,96695.66
2022-10-23T21:43:55.614Z,96703.50
2022-10-23T21:46:23.544Z,96713.59
2022-10-23T21:48:50.172Z,96721.13
2022-10-23T21:51:23.880Z,96713.13
2022-10-23T21:53:51.688Z,96698.94
2022-10-23T21:56:35.276Z,96723.75
2022-10-23T21:59:03.355Z,96711.09
2022-10-23T22:01:30.168Z,96710.56
2022-10-23T22:03:56.706Z,96705.41
2022-10-23T22:06:28.416Z,96721.19
2022-10-23T22:08:56.743Z,96722.47
2022-10-23T22:11:23.741Z,96726.00
2022-10-23T22:13:50.453Z,96725.81
2022-10-23T22:16:17.877Z,96716.03
2022-10-23T22:18:44.712Z,96712.47
2022-10-23T22:21:15.107Z,96706.03
2022-10-23T22:23:41.971Z,96694.66
2022-10-23T22:26:29.983Z,96698.03
2022-10-23T22:28:59.005Z,96701.31
2022-10-23T22:31:28.325Z,96701.00
2022-10-23T22:33:55.929Z,96699.97
2022-10-23T22:36:23.211Z,96689.44
2022-10-23T22:38:49.702Z,96691.63
2022-10-23T22:41:16.440Z,96678.38
2022-10-23T22:43:42.926Z,96689.50
2022-10-23T22:46:12.666Z,96687.13
2022-10-23T22:48:39.658Z,96705.00
2022-10-23T22:51:09.062Z,96692.19
2022-10-23T22:53:35.765Z,96702.41
2022-10-23T22:56:06.139Z,96697.09
2022-10-23T22:58:32.481Z,96697.44
2022-10-23T23:01:08.704Z,96689.41
2022-10-23T23:03:36.507Z,96705.59
2022-10-23T23:06:05.432Z,96698.00
2022-10-23T23:08:32.421Z,96695.44
2022-10-23T23:10:59.097Z,96702.69
2022-10-23T23:13:26.109Z,96697.41
2022-10-23T23:15:53.055Z,96705.72
2022-10-23T23:18:20.265Z,96699.66
2022-10-23T23:20:46.779Z,96690.44
2022-10-23T23:23:14.114Z,96709.75
2022-10-23T23:25:42.479Z,96715.53
2022-10-23T23:28:11.037Z,96703.25
2022-10-23T23:30:37.496Z,96708.03
2022-10-23T23:33:03.885Z,96699.06
2022-10-23T23:35:30.280Z,96698.75
2022-10-23T23:37:56.995Z,96686.66
2022-10-23T23:40:23.391Z,96689.69
2022-10-23T23:42:49.860Z,96679.16
2022-10-23T23:45:16.314Z,96707.09
2022-10-23T23:47:42.988Z,96685.91
2022-10-23T23:50:11.637Z,96703.28
2022-10-23T23:52:38.079Z,96692.38
2022-10-23T23:55:05.672Z,96690.97
2022-10-23T23:57:32.381Z,96685.44
2022-10-23T23:59:59.050Z,96693.94
